M I D A S
Marine Information and Data Acquisition System
Tripno 1544 of the Zeeleeuw from 2008-08-26 08:33:58 to 2008-08-26 13:35:23
Back to CruiseResearch ActivitiesStationsMapUnderway DataData graphs

EquipmentUnitsComment
TimeDGPSUTC
LatitudeDGPSDM.mWGS84
LongitudeDGPSDM.mWGS84
HeadingGyrodeg 
SOGDGPSknotsSpeed over ground
COGDGPSdegCourse over ground
DepthEcho soundermeters200 kHz
Missing or incorrect values are displayed as -999
Navigation data collected by the RV Zeeleeuw from 2008-08-26 08:36:44 to 2008-08-26 13:38:50
Time Latitude Longitude Heading SOG COG Depth
2008-08-26 08:37:49 51°13.638 2°55.989 111.2 3.3 292 -999
2008-08-26 08:38:49 51°13.665 2°55.887 113.6 4.5 294 -999
2008-08-26 08:39:49 51°13.686 2°55.793 97.2 3.1 283 -999
2008-08-26 08:40:47 51°13.691 2°55.738 77.3 1.1 276 13.2
2008-08-26 08:41:45 51°13.696 2°55.731 43.5 1.1 21 13.9
2008-08-26 08:42:45 51°13.751 2°55.711 333.4 5.7 331 12.3
2008-08-26 08:43:45 51°13.854 2°55.623 335.7 7.7 334 12.6
2008-08-26 08:44:45 51°13.973 2°55.533 336.3 8 335 13
2008-08-26 08:45:45 51°14.093 2°55.439 337.4 8.3 335 13
2008-08-26 08:46:45 51°14.222 2°55.314 324.7 9.6 321 12.5
2008-08-26 08:47:45 51°14.343 2°55.127 315.5 10.5 314 12.7
2008-08-26 08:48:45 51°14.473 2°54.936 316.4 10.6 318 12.2
2008-08-26 08:49:45 51°14.586 2°54.732 298.2 9.9 297 11.9
2008-08-26 08:50:45 51°14.644 2°54.486 288.2 10.2 291 12.2
2008-08-26 08:51:45 51°14.71 2°54.22 287.9 11.1 289 12.2
2008-08-26 08:52:45 51°14.767 2°53.939 285.2 11.3 287 11.7
2008-08-26 08:53:45 51°14.815 2°53.645 282.2 11.5 284 12.3
2008-08-26 08:54:45 51°14.854 2°53.346 280 11.5 281 12.7
2008-08-26 08:55:45 51°14.892 2°53.046 280.8 11.5 282 12.3
2008-08-26 08:56:45 51°14.937 2°52.748 283.1 11.5 283 12.3
2008-08-26 08:57:45 51°14.982 2°52.452 281.5 11.5 282 12.3
2008-08-26 08:58:45 51°15.021 2°52.155 280.8 11.4 282 12.6
2008-08-26 08:59:45 51°15.068 2°51.86 283 11.4 284 13.1
2008-08-26 09:00:45 51°15.11 2°51.565 281.4 11.4 283 13.8
2008-08-26 09:01:45 51°15.157 2°51.271 282.5 11.5 285 14
2008-08-26 09:02:45 51°15.209 2°50.979 283.7 11.5 286 14.4
2008-08-26 09:03:45 51°15.266 2°50.688 286.8 11.5 287 14.4
2008-08-26 09:04:45 51°15.326 2°50.399 286.4 11.5 289 14.5
2008-08-26 09:05:45 51°15.387 2°50.109 286.3 11.5 288 14.5
2008-08-26 09:06:45 51°15.446 2°49.818 285.8 11.5 288 14.7
2008-08-26 09:07:45 51°15.505 2°49.529 285.3 11.5 288 14.8
2008-08-26 09:08:45 51°15.564 2°49.241 285.6 11.4 288 13.9
2008-08-26 09:09:45 51°15.622 2°48.952 285.6 11.5 288 12.4
2008-08-26 09:10:45 51°15.679 2°48.661 284.7 11.5 287 12.5
2008-08-26 09:11:45 51°15.728 2°48.366 283.1 11.5 285 13.4
2008-08-26 09:12:45 51°15.783 2°48.076 284.4 11.3 287 15.2
2008-08-26 09:13:45 51°15.843 2°47.789 286.2 11.5 288 16.6
2008-08-26 09:14:45 51°15.905 2°47.503 286.3 11.4 290 17.8
2008-08-26 09:15:45 51°15.967 2°47.217 286.3 11.3 289 18.1
2008-08-26 09:16:45 51°16.029 2°46.932 284.8 11.4 288 17.2
2008-08-26 09:17:45 51°16.083 2°46.643 283.6 11.4 287 14.8
2008-08-26 09:18:45 51°16.143 2°46.356 286.2 11.5 290 13.9
2008-08-26 09:19:45 51°16.208 2°46.071 285.3 11.5 289 12.4
2008-08-26 09:20:45 51°16.269 2°45.781 285.9 11.5 291 11.9
2008-08-26 09:21:45 51°16.333 2°45.493 284.4 11.5 288 12.6
2008-08-26 09:22:45 51°16.417 2°45.217 295.4 11.7 299 13.1
2008-08-26 09:23:45 51°16.52 2°44.95 297.5 11.7 301 12.9
2008-08-26 09:24:45 51°16.62 2°44.682 296 11.7 301 13.4
2008-08-26 09:25:45 51°16.721 2°44.416 297.4 11.8 301 15.7
2008-08-26 09:26:45 51°16.823 2°44.145 296.3 11.7 300 16.7
2008-08-26 09:27:45 51°16.89 2°43.862 277.3 11.3 279 16.1
2008-08-26 09:28:45 51°16.884 2°43.562 261.6 11.4 265 15.7
2008-08-26 09:29:45 51°16.868 2°43.259 261.1 11.4 263 14.8
2008-08-26 09:30:45 51°16.895 2°42.963 287.9 11.4 295 14.1
2008-08-26 09:31:45 51°16.998 2°42.703 303 11.7 307 11.4
2008-08-26 09:32:45 51°17.103 2°42.446 287.3 11.3 288 12
2008-08-26 09:33:45 51°17.105 2°42.155 258.7 11.1 262 20.8
2008-08-26 09:34:45 51°17.078 2°41.862 257.7 11.3 263 23.1
2008-08-26 09:35:45 51°17.074 2°41.567 276.1 11.3 283 24.4
2008-08-26 09:36:45 51°17.157 2°41.294 299.9 11.7 305 24.8
2008-08-26 09:37:45 51°17.289 2°41.061 310.4 12 313 24.5
2008-08-26 09:38:45 51°17.425 2°40.83 310.6 12.1 315 22.7
2008-08-26 09:39:45 51°17.564 2°40.601 309.8 11.9 313 17.7
2008-08-26 09:40:45 51°17.698 2°40.37 310 11.9 314 16.5
2008-08-26 09:41:45 51°17.833 2°40.139 308.5 11.9 313 17
2008-08-26 09:42:45 51°17.973 2°39.914 310.3 11.9 317 21.2
2008-08-26 09:43:45 51°18.116 2°39.697 311.5 12 317 26.6
2008-08-26 09:44:45 51°18.26 2°39.474 309.3 12 315 27.5
2008-08-26 09:45:45 51°18.404 2°39.253 311 12.1 318 27
2008-08-26 09:46:45 51°18.556 2°39.039 312.6 12.1 317 27.2
2008-08-26 09:47:45 51°18.699 2°38.815 310.4 12 314 27.7
2008-08-26 09:48:45 51°18.839 2°38.588 309.6 11.9 314 27.8
2008-08-26 09:49:45 51°18.977 2°38.36 310.6 12 313 27.9
2008-08-26 09:50:45 51°19.116 2°38.133 311.9 12 317 25.1
2008-08-26 09:51:45 51°19.269 2°37.924 316.6 12 320 23.4
2008-08-26 09:52:45 51°19.419 2°37.713 312.4 11.9 314 21.7
2008-08-26 09:53:45 51°19.562 2°37.494 314.3 12 319 23
2008-08-26 09:54:45 51°19.715 2°37.287 316.1 12.1 319 21.6
2008-08-26 09:55:45 51°19.853 2°37.103 314.9 8 322 22.5
2008-08-26 09:56:45 51°19.929 2°37.008 306.9 4.4 319 22.9
2008-08-26 09:57:45 51°19.985 2°36.936 309.5 4.3 325 22.5
2008-08-26 09:58:45 51°20.029 2°36.898 315.5 2.3 347 23.4
2008-08-26 09:59:45 51°20.062 2°36.891 310.7 1.5 1 24.7
2008-08-26 10:00:45 51°20.085 2°36.901 316.5 1.5 22 22.4
2008-08-26 10:01:45 51°20.104 2°36.921 319.3 1.5 39 24.1
2008-08-26 10:02:45 51°20.121 2°36.948 326.8 1.5 49 22.7
2008-08-26 10:03:45 51°20.136 2°36.978 335 1.5 54 20.6
2008-08-26 10:04:45 51°20.15 2°37.008 339.3 1.5 48 23
2008-08-26 10:05:45 51°20.205 2°37.067 55.9 5.9 61 23
2008-08-26 10:06:45 51°20.175 2°37.19 162.3 5 159 22.6
2008-08-26 10:07:45 51°20.108 2°37.124 233.9 5.8 233 22.8
2008-08-26 10:08:45 51°20.046 2°37.032 222.2 4.7 221 22.1
2008-08-26 10:09:45 51°19.997 2°36.948 234 3.5 236 22.5
2008-08-26 10:10:45 51°19.99 2°36.894 271 1.4 295 22.6
2008-08-26 10:11:45 51°20.009 2°36.881 304 1.4 2 23
2008-08-26 10:12:45 51°20.036 2°36.876 308.6 1.5 353 23.6
2008-08-26 10:13:45 51°20.057 2°36.883 308.1 1.2 19 24.3
2008-08-26 10:14:45 51°20.077 2°36.896 313.7 1.3 20 24.6
2008-08-26 10:15:45 51°20.098 2°36.908 317.3 1.3 23 20.8
2008-08-26 10:16:45 51°20.118 2°36.924 320 1.2 31 22.6
2008-08-26 10:17:45 51°20.134 2°36.944 326.2 1.3 41 23.1
2008-08-26 10:18:45 51°20.149 2°36.969 334.5 1.3 46 21
2008-08-26 10:19:45 51°20.164 2°36.997 346.4 1.5 57 23
2008-08-26 10:20:45 51°20.176 2°37.027 356 1.3 57 23.3
2008-08-26 10:21:45 51°20.188 2°37.055 1.4 1.3 58 22.1
2008-08-26 10:22:45 51°20.199 2°37.083 1 1.1 53 23
2008-08-26 10:23:45 51°20.211 2°37.109 356.3 1.2 52 23.1
2008-08-26 10:24:45 51°20.223 2°37.135 354.9 1.2 52 23.3
2008-08-26 10:25:45 51°20.235 2°37.161 351.7 1.4 53 23.1
2008-08-26 10:26:45 51°20.247 2°37.186 345 1.2 57 22.4
2008-08-26 10:27:45 51°20.258 2°37.213 344.8 1.2 58 22.6
2008-08-26 10:28:45 51°20.271 2°37.239 346.4 1.4 56 23
2008-08-26 10:29:45 51°20.283 2°37.265 347.6 1.2 55 23.3
2008-08-26 10:30:45 51°20.308 2°37.279 327.2 2.5 347 20.9
2008-08-26 10:31:45 51°20.331 2°37.22 258.2 2.9 262 23.5
2008-08-26 10:32:45 51°20.291 2°37.152 218.5 4.4 218 20.9
2008-08-26 10:33:45 51°20.23 2°37.074 221.2 4.4 221 23
2008-08-26 10:34:45 51°20.188 2°37.015 229.3 2.6 229 23
2008-08-26 10:35:45 51°20.17 2°36.963 249.5 2.1 255 21.8
2008-08-26 10:36:45 51°20.175 2°36.909 274.8 2.1 297 21.2
2008-08-26 10:37:45 51°20.194 2°36.86 282.9 2.1 304 21.6
2008-08-26 10:38:45 51°20.214 2°36.813 283.1 2 306 22
2008-08-26 10:39:45 51°20.235 2°36.79 295.7 1.4 343 22.5
2008-08-26 10:40:45 51°20.255 2°36.789 303.6 1.2 14 23.1
2008-08-26 10:41:45 51°20.272 2°36.8 311.8 1.1 28 22.9
2008-08-26 10:42:45 51°20.289 2°36.816 320.8 1.2 35 22.7
2008-08-26 10:43:45 51°20.303 2°36.839 334.1 1.2 47 22.7
2008-08-26 10:44:45 51°20.316 2°36.863 344.2 1.1 53 22.7
2008-08-26 10:45:45 51°20.328 2°36.886 350 1 48 22.5
2008-08-26 10:46:45 51°20.339 2°36.909 352 1.2 56 23.7
2008-08-26 10:47:45 51°20.35 2°36.932 351.9 1 51 23.6
2008-08-26 10:48:45 51°20.362 2°36.954 348.5 1.2 52 21.3
2008-08-26 10:49:45 51°20.372 2°36.975 348.1 1 48 22.7
2008-08-26 10:50:45 51°20.382 2°36.997 346.7 1 56 22.5
2008-08-26 10:51:45 51°20.392 2°37.018 348.3 1 56 22.8
2008-08-26 10:52:45 51°20.401 2°37.04 351.9 1.1 57 23.3
2008-08-26 10:53:45 51°20.411 2°37.061 348.3 1 51 23.2
2008-08-26 10:54:45 51°20.422 2°37.082 344.9 0.9 52 21.9
2008-08-26 10:55:45 51°20.434 2°37.101 338 1.3 16 23.3
2008-08-26 10:56:45 51°20.464 2°37.084 296.8 2.2 317 22.9
2008-08-26 10:57:45 51°20.47 2°37.031 241.2 2.2 244 23.3
2008-08-26 10:58:45 51°20.438 2°37.014 192 2.4 184 23.1
2008-08-26 10:59:45 51°20.397 2°37.003 206.8 2.4 196 22.9
2008-08-26 11:00:45 51°20.37 2°36.986 218.3 1.3 204 22.7
2008-08-26 11:01:45 51°20.355 2°36.975 222.6 0.8 204 22
2008-08-26 11:02:45 51°20.346 2°36.971 219.2 0.6 182 22
2008-08-26 11:03:45 51°20.338 2°36.974 211.5 0.4 153 22.5
2008-08-26 11:04:45 51°20.331 2°36.983 200.8 0.8 138 22.1
2008-08-26 11:05:45 51°20.32 2°36.995 193.8 1 155 21.7
2008-08-26 11:06:45 51°20.303 2°37.003 197.4 1.1 166 22.5
2008-08-26 11:07:45 51°20.285 2°37.008 199.5 1.1 170 22.7
2008-08-26 11:08:45 51°20.273 2°37.016 200.4 0.7 142 22.9
2008-08-26 11:09:45 51°20.27 2°37.031 193.4 0.8 91 22.5
2008-08-26 11:10:45 51°20.271 2°37.052 179.2 0.8 80 22.1
2008-08-26 11:11:45 51°20.272 2°37.076 166.8 0.9 89 22.8
2008-08-26 11:12:45 51°20.27 2°37.1 167.1 0.9 116 22.8
2008-08-26 11:13:45 51°20.262 2°37.12 176.3 0.8 128 22.8
2008-08-26 11:14:45 51°20.253 2°37.136 181 0.7 138 22.7
2008-08-26 11:15:45 51°20.243 2°37.15 185.7 0.8 144 22.4
2008-08-26 11:16:45 51°20.229 2°37.161 192.8 0.9 160 22.4
2008-08-26 11:17:45 51°20.215 2°37.167 199.3 0.9 168 22
2008-08-26 11:18:45 51°20.201 2°37.17 203.3 0.9 177 22
2008-08-26 11:19:45 51°20.186 2°37.169 211.1 0.7 190 22.5
2008-08-26 11:20:45 51°20.175 2°37.166 215.6 0.4 175 22.2
2008-08-26 11:21:45 51°20.173 2°37.174 208.3 0.5 89 22.4
2008-08-26 11:22:45 51°20.175 2°37.191 187.3 0.7 70 21.9
2008-08-26 11:23:45 51°20.181 2°37.21 163.9 0.8 64 22.1
2008-08-26 11:24:45 51°20.187 2°37.227 151.4 0.8 55 22.3
2008-08-26 11:25:45 51°20.195 2°37.245 140.4 0.9 50 20.3
2008-08-26 11:26:45 51°20.203 2°37.261 140.9 0.7 49 22
2008-08-26 11:27:45 51°20.211 2°37.277 139.7 0.7 52 22.7
2008-08-26 11:28:45 51°20.22 2°37.292 140.5 0.7 47 22.8
2008-08-26 11:29:45 51°20.228 2°37.307 144.8 0.6 52 22.4
2008-08-26 11:30:45 51°20.235 2°37.322 147.8 0.6 51 22.6
2008-08-26 11:31:45 51°20.242 2°37.337 150.9 0.7 52 22.9
2008-08-26 11:32:45 51°20.25 2°37.352 152.9 0.7 47 20.8
2008-08-26 11:33:45 51°20.254 2°37.369 155.2 1 117 21.6
2008-08-26 11:34:45 51°20.232 2°37.386 189.3 1.8 178 21.3
2008-08-26 11:35:45 51°20.202 2°37.363 230 2.3 230 22.6
2008-08-26 11:36:45 51°20.183 2°37.301 248.7 2.4 252 22.5
2008-08-26 11:37:45 51°20.174 2°37.244 253.9 2 261 22.1
2008-08-26 11:38:45 51°20.173 2°37.2 259.8 1.4 277 21.2
2008-08-26 11:39:45 51°20.178 2°37.17 269.7 1 297 22.2
2008-08-26 11:40:45 51°20.188 2°37.149 275.2 1 308 22.2
2008-08-26 11:41:45 51°20.199 2°37.139 281 0.7 353 21.9
2008-08-26 11:42:45 51°20.211 2°37.144 297.7 0.8 27 22.4
2008-08-26 11:43:45 51°20.221 2°37.156 319 0.8 39 22
2008-08-26 11:44:45 51°20.231 2°37.171 337.7 0.7 48 22.1
2008-08-26 11:45:45 51°20.239 2°37.185 350.1 0.8 50 22.6
2008-08-26 11:46:45 51°20.246 2°37.2 355.9 0.7 59 20.3
2008-08-26 11:47:45 51°20.251 2°37.215 359.6 0.6 56 21.5
2008-08-26 11:48:45 51°20.257 2°37.23 358.1 0.7 58 22.3
2008-08-26 11:49:45 51°20.264 2°37.243 353.5 0.7 46 22.7
2008-08-26 11:50:45 51°20.271 2°37.256 345.7 0.6 48 22.4
2008-08-26 11:51:45 51°20.278 2°37.268 340.8 0.7 45 22.6
2008-08-26 11:52:45 51°20.284 2°37.28 340 0.7 56 22.3
2008-08-26 11:53:45 51°20.293 2°37.291 337.8 1 5 20.3
2008-08-26 11:54:45 51°20.316 2°37.275 304.8 1.9 317 21.2
2008-08-26 11:55:45 51°20.33 2°37.229 264.8 2 276 22
2008-08-26 11:56:45 51°20.316 2°37.181 222.1 2.3 227 22.2
2008-08-26 11:57:45 51°20.288 2°37.132 235.4 2.2 235 22.6
2008-08-26 11:58:45 51°20.274 2°37.094 242.3 1.3 245 22.5
2008-08-26 11:59:45 51°20.269 2°37.069 244.5 0.8 251 22.7
2008-08-26 12:00:45 51°20.267 2°37.044 264.1 1.5 280 20.6
2008-08-26 12:01:45 51°20.289 2°37.002 314.2 2.5 328 22.3
2008-08-26 12:02:45 51°20.322 2°36.964 310.4 2.5 319 22.7
2008-08-26 12:03:45 51°20.353 2°36.919 307 2.4 316 22.8
2008-08-26 12:04:45 51°20.382 2°36.877 307.4 2 319 21.7
2008-08-26 12:05:45 51°20.403 2°36.851 306.2 1.2 325 21.6
2008-08-26 12:06:45 51°20.418 2°36.841 309.1 0.8 354 21.8
2008-08-26 12:07:45 51°20.431 2°36.841 315.5 0.8 1 22.2
2008-08-26 12:08:45 51°20.443 2°36.843 319.4 0.7 15 22
2008-08-26 12:09:45 51°20.454 2°36.85 327.7 0.6 31 22
2008-08-26 12:10:45 51°20.462 2°36.859 335.2 0.6 46 22
2008-08-26 12:11:45 51°20.469 2°36.873 341.4 0.6 50 22
2008-08-26 12:12:46 51°20.484 2°36.881 356.2 1.9 9 21.5
2008-08-26 12:13:46 51°20.526 2°36.917 52 3.4 54 22
2008-08-26 12:14:46 51°20.525 2°37.002 122.2 3.6 120 22.7
2008-08-26 12:15:46 51°20.482 2°37.097 126.5 5.1 125 22.6
2008-08-26 12:16:46 51°20.432 2°37.22 122.9 5.7 121 21.7
2008-08-26 12:17:46 51°20.373 2°37.356 127.7 6.8 127 22.5
2008-08-26 12:18:46 51°20.3 2°37.504 128.3 7.2 127 22.5
2008-08-26 12:19:46 51°20.227 2°37.656 127.9 7.3 130 20.8
2008-08-26 12:20:46 51°20.151 2°37.808 128 7.3 128 22.6
2008-08-26 12:21:46 51°20.075 2°37.959 128.4 7.3 130 22.3
2008-08-26 12:22:46 51°19.99 2°38.128 127.6 9 128 22.1
2008-08-26 12:23:46 51°19.893 2°38.32 127.9 9.4 129 22.6
2008-08-26 12:24:46 51°19.795 2°38.515 128 9.5 129 23
2008-08-26 12:25:46 51°19.694 2°38.709 128.2 9.6 129 24.1
2008-08-26 12:26:46 51°19.593 2°38.905 127.5 9.6 128 26.1
2008-08-26 12:27:46 51°19.492 2°39.101 128.9 9.6 128 28.2
2008-08-26 12:28:46 51°19.393 2°39.299 128 9.5 127 29.3
2008-08-26 12:29:46 51°19.296 2°39.499 128.9 9.5 128 27.6
2008-08-26 12:30:46 51°19.199 2°39.697 128.7 9.4 129 25.1
2008-08-26 12:31:46 51°19.103 2°39.895 128.6 9.4 128 23
2008-08-26 12:32:46 51°19.002 2°40.094 129.1 9.7 132 21.7
2008-08-26 12:33:46 51°18.898 2°40.296 128.7 9.9 131 21.7
2008-08-26 12:34:46 51°18.793 2°40.497 129 9.9 131 17.9
2008-08-26 12:35:46 51°18.689 2°40.696 127.7 9.8 129 17.4
2008-08-26 12:36:46 51°18.585 2°40.895 128.4 9.7 129 13
2008-08-26 12:37:46 51°18.48 2°41.09 128.4 9.7 130 15.2
2008-08-26 12:38:46 51°18.376 2°41.29 127.6 9.8 129 19.3
2008-08-26 12:39:46 51°18.27 2°41.49 127.2 9.8 131 21.1
2008-08-26 12:40:46 51°18.164 2°41.691 127.7 10 129 22.6
2008-08-26 12:41:46 51°18.057 2°41.894 128 9.9 130 23.4
2008-08-26 12:42:46 51°17.95 2°42.096 128 10 131 23.6
2008-08-26 12:43:46 51°17.845 2°42.299 128 9.9 130 23.4
2008-08-26 12:44:46 51°17.738 2°42.499 128.4 10 130 22.6
2008-08-26 12:45:46 51°17.632 2°42.699 127.7 9.8 131 20.8
2008-08-26 12:46:46 51°17.527 2°42.897 128.3 9.5 132 12.3
2008-08-26 12:47:46 51°17.425 2°43.091 128.4 9.5 131 11.1
2008-08-26 12:48:46 51°17.327 2°43.291 122.5 9.6 124 10.5
2008-08-26 12:49:46 51°17.25 2°43.515 116.7 9.7 118 14.8
2008-08-26 12:50:46 51°17.171 2°43.742 117.1 9.8 117 14.3
2008-08-26 12:51:46 51°17.094 2°43.971 117.1 9.8 118 14.7
2008-08-26 12:52:46 51°17.013 2°44.199 117.4 9.9 118 15.2
2008-08-26 12:53:46 51°16.936 2°44.431 116.4 9.9 118 14.9
2008-08-26 12:54:46 51°16.858 2°44.661 116 9.9 119 13.1
2008-08-26 12:55:46 51°16.781 2°44.892 116.1 9.9 118 10.4
2008-08-26 12:56:46 51°16.701 2°45.128 116 10.2 117 10.7
2008-08-26 12:57:46 51°16.619 2°45.365 117.6 10.2 119 10.5
2008-08-26 12:58:46 51°16.537 2°45.604 115.9 10.2 116 10.6
2008-08-26 12:59:46 51°16.467 2°45.854 112.3 10.3 115 10.1
2008-08-26 13:00:46 51°16.395 2°46.099 114.7 10 114 9.1
2008-08-26 13:01:46 51°16.323 2°46.34 112.4 10 113 8.8
2008-08-26 13:02:46 51°16.252 2°46.583 112 10.3 114 10.1
2008-08-26 13:03:46 51°16.181 2°46.828 113.9 10.1 114 12.1
2008-08-26 13:04:46 51°16.11 2°47.07 112.4 10 116 14.3
2008-08-26 13:05:46 51°16.042 2°47.315 111.9 10 117 15.6
2008-08-26 13:06:46 51°15.975 2°47.56 111 10.2 115 15.4
2008-08-26 13:07:46 51°15.908 2°47.804 111 10.2 115 14.9
2008-08-26 13:08:46 51°15.84 2°48.051 111.3 10.1 114 13.6
2008-08-26 13:09:46 51°15.773 2°48.299 111.3 10.1 113 11.8
2008-08-26 13:10:46 51°15.707 2°48.546 111.3 10.2 112 10.5
2008-08-26 13:11:46 51°15.638 2°48.789 111.1 10.1 114 10
2008-08-26 13:12:46 51°15.575 2°49.037 109.5 10.1 111 10.5
2008-08-26 13:13:46 51°15.513 2°49.287 108.2 10.1 113 12.2
2008-08-26 13:14:46 51°15.452 2°49.536 108.3 10.2 112 12.4
2008-08-26 13:15:46 51°15.39 2°49.786 109.6 10.1 112 12.3
2008-08-26 13:16:46 51°15.328 2°50.034 108.3 10.1 111 12.1
2008-08-26 13:17:46 51°15.267 2°50.283 109.3 10 112 12
2008-08-26 13:18:46 51°15.206 2°50.531 107.1 10.1 110 12.1
2008-08-26 13:19:46 51°15.149 2°50.783 106.6 10.1 110 11.7
2008-08-26 13:20:46 51°15.092 2°51.038 106.7 10.4 110 11.5
2008-08-26 13:21:46 51°15.033 2°51.297 106.9 10.5 110 11.2
2008-08-26 13:22:46 51°14.975 2°51.557 106.6 10 110 10.8
2008-08-26 13:23:46 51°14.915 2°51.805 108.7 9.9 111 10.2
2008-08-26 13:24:46 51°14.866 2°52.056 101.9 10 104 9.8
2008-08-26 13:25:46 51°14.83 2°52.312 100.6 9.8 101 9.4
2008-08-26 13:26:46 51°14.791 2°52.569 102.8 10 104 9.1
2008-08-26 13:27:46 51°14.752 2°52.836 101 11 102 8.9
2008-08-26 13:28:46 51°14.711 2°53.128 100.2 11.5 103 8.5
2008-08-26 13:29:46 51°14.672 2°53.422 100.3 11.4 103 8.3
2008-08-26 13:30:46 51°14.626 2°53.718 101.8 11.6 105 8.8
2008-08-26 13:31:46 51°14.593 2°54.023 96.6 11.5 97 10.5
2008-08-26 13:32:46 51°14.565 2°54.328 99.4 11.6 102 10.2
2008-08-26 13:33:46 51°14.511 2°54.621 109.5 11.6 112 10.4
2008-08-26 13:34:46 51°14.424 2°54.894 117.4 11.7 119 10.1
2008-08-26 13:35:46 51°14.315 2°55.154 127.4 11.7 128 9.9
2008-08-26 13:36:50 51°14.169 2°55.371 145.8 11 145 -999
2008-08-26 13:37:50 51°14.037 2°55.484 152.9 7.9 154 -999